Terminal Aerodrome Forecast
Issued by NWS Blacksburg, VA

Current Version | Previous Version | Graphics & Text | Print | Product List | Glossary Off
Versions: 1 2 3 4 5 6 7 8 9 10 11 12 13 14 15 16 17 18 19 20 21 22 23 24 25 26 27 28 29 30 31 32 33 34 35 36 37 38

000
FTUS41 KRNK 010520
TAFBLF
TAF
KBLF 010520Z 0106/0206 15010G17KT P6SM OVC100
     FM011000 15008KT P6SM -FZRAPL SCT012 OVC040
     FM011200 19008KT 3SM -FZRA BR OVC007
     FM011600 21008KT 2SM -RA BR OVC005
     FM012000 23005KT 1SM -DZ BR OVC003=

USA.gov is the U.S. government's official web portal to all federal, state and local government web resources and services.